Time;durP1;ratioP1;P1;durP2;ratioP2;P2;SDS_P1;SDS_P2;PMS_P1;PMS_P2;Temp;Humidity;BMP_temperature;BMP_pressure;BME280_temperature;BME280_humidity;BME280_pressure;Samples;Min_cycle;Max_cycle;Signal;HPM_P1;HPM_P2
2022/12/10 00:02:19;;;;;;;;;;;;;;;13.79;77.25;101010.78;5094829;28;19915;-84
2022/12/10 00:04:44;;;;;;;;;;;;;;;13.78;77.42;101004.66;5088993;28;20416;-83
2022/12/10 00:07:09;;;;;;;;;;;;;;;13.77;77.33;101000.22;5103407;28;20621;-83
2022/12/10 00:09:35;;;;;;;;;;;;;;;13.80;77.34;101004.69;5104173;28;20413;-85
2022/12/10 00:12:00;;;;;;;;;;;;;;;13.81;77.23;100998.63;5099502;28;20445;-83
2022/12/10 00:14:26;;;;;;;;;;;;;;;13.80;77.13;101000.38;5095786;28;19916;-85
2022/12/10 00:16:51;;;;;;;;;;;;;;;13.77;77.30;100984.47;5110430;28;20445;-85
2022/12/10 00:19:16;;;;;;;;;;;;;;;13.74;77.24;100984.34;5108341;27;20367;-85
2022/12/10 00:21:42;;;;;;;;;;;;;;;13.79;77.16;100992.41;5094571;28;20371;-85
2022/12/10 00:24:08;;;;;;;;;;;;;;;13.78;77.44;100988.00;5112247;27;19915;-85
2022/12/10 00:26:35;;;;;;;;;;;;;;;13.80;77.22;100981.06;5097858;27;20499;-85
2022/12/10 00:29:01;;;;;;;;;;;;;;;13.80;77.19;100974.13;5116853;27;19960;-85
2022/12/10 00:31:27;;;;;;;;;;;;;;;13.80;77.17;100981.06;5107959;27;19982;-85
2022/12/10 00:33:54;;;;;;;;;;;;;;;13.78;77.30;100972.25;5115946;27;19919;-84
2022/12/10 00:36:22;;;;;;;;;;;;;;;13.78;77.25;100972.25;5109254;27;19919;-85
2022/12/10 00:38:47;;;;;;;;;;;;;;;13.76;77.38;100964.31;5109228;27;19912;-85
2022/12/10 00:41:13;;;;;;;;;;;;;;;13.77;77.31;100971.34;5088449;27;20312;-84
2022/12/10 00:43:38;;;;;;;;;;;;;;;13.75;77.44;100967.75;5116790;27;19916;-84
2022/12/10 00:46:04;;;;;;;;;;;;;;;13.76;77.17;100963.41;5134817;27;19919;-84
2022/12/10 00:48:29;;;;;;;;;;;;;;;13.76;77.10;100959.06;5103177;28;19912;-84
2022/12/10 00:50:59;;;;;;;;;;;;;;;13.73;77.47;100956.28;5113831;27;19915;-85
2022/12/10 00:53:25;;;;;;;;;;;;;;;13.76;77.20;100953.81;5096107;28;19922;-85
2022/12/10 00:55:51;;;;;;;;;;;;;;;13.76;77.25;100951.19;5099660;27;19911;-84
2022/12/10 00:58:16;;;;;;;;;;;;;;;13.76;77.26;100938.06;5134867;27;19999;-84
2022/12/10 01:00:42;;;;;;;;;;;;;;;13.76;77.21;100939.78;5113391;27;20384;-85
2022/12/10 01:03:07;;;;;;;;;;;;;;;13.77;77.10;100931.06;5131363;27;19915;-85
2022/12/10 01:05:32;;;;;;;;;;;;;;;13.75;77.21;100931.00;5135538;27;19923;-85
2022/12/10 01:07:58;;;;;;;;;;;;;;;13.72;77.42;100935.25;5133073;27;20319;-86
2022/12/10 01:10:23;;;;;;;;;;;;;;;13.71;77.28;100928.19;5113768;27;20388;-84
2022/12/10 01:12:49;;;;;;;;;;;;;;;13.76;77.12;100931.94;5102426;27;20311;-83
2022/12/10 01:15:15;;;;;;;;;;;;;;;13.74;77.11;100929.22;5119197;27;20384;-83
2022/12/10 01:17:41;;;;;;;;;;;;;;;13.76;77.24;100927.56;5130548;27;19922;-84
2022/12/10 01:20:06;;;;;;;;;;;;;;;13.78;77.12;100930.25;5130787;27;20350;-85
2022/12/10 01:22:32;;;;;;;;;;;;;;;13.75;77.26;100933.63;5130927;27;20403;-85
2022/12/10 01:24:57;;;;;;;;;;;;;;;13.74;77.21;100931.84;5108217;27;19915;-85
2022/12/10 01:27:22;;;;;;;;;;;;;;;13.72;77.42;100927.38;5111368;27;19915;-84
2022/12/10 01:29:48;;;;;;;;;;;;;;;13.73;77.28;100924.78;5114376;27;20373;-85
2022/12/10 01:32:13;;;;;;;;;;;;;;;13.74;77.19;100925.72;5134717;27;20436;-84
2022/12/10 01:34:39;;;;;;;;;;;;;;;13.75;77.25;100923.13;5136419;27;20528;-85
2022/12/10 01:37:04;;;;;;;;;;;;;;;13.77;77.03;100928.44;5134741;27;19920;-85
2022/12/10 01:39:29;;;;;;;;;;;;;;;13.77;76.95;100934.59;5130798;27;20395;-84
2022/12/10 01:41:56;;;;;;;;;;;;;;;13.75;77.10;100936.25;5114727;27;19958;-84
2022/12/10 01:44:21;;;;;;;;;;;;;;;13.74;77.19;100939.72;5117805;27;19947;-83
2022/12/10 01:46:48;;;;;;;;;;;;;;;13.75;77.10;100936.25;5134076;27;19934;-84
2022/12/10 01:49:18;;;;;;;;;;;;;;;13.72;77.12;100933.50;5128618;27;19947;-83
2022/12/10 01:51:44;;;;;;;;;;;;;;;13.76;76.96;100927.56;5106482;27;19924;-83
2022/12/10 01:54:11;;;;;;;;;;;;;;;13.74;77.21;100930.97;5114744;27;20029;-83
2022/12/10 01:56:38;;;;;;;;;;;;;;;13.75;77.07;100923.13;5115455;27;20054;-84
2022/12/10 01:59:03;;;;;;;;;;;;;;;13.74;77.06;100917.84;5115235;27;19911;-83
2022/12/10 02:01:32;;;;;;;;;;;;;;;13.72;77.20;100915.13;5132226;27;20308;-85
2022/12/10 02:04:14;;;;;;;;;;;;;;;13.71;77.04;100907.19;5106410;27;20014;-83
2022/12/10 02:06:46;;;;;;;;;;;;;;;13.74;77.01;100897.72;5109301;27;19916;-85
2022/12/10 02:09:23;;;;;;;;;;;;;;;13.74;77.08;100895.09;5124397;27;19918;-85
2022/12/10 02:11:58;;;;;;;;;;;;;;;13.72;77.11;100902.00;5114062;27;19919;-85
2022/12/10 02:14:26;;;;;;;;;;;;;;;13.72;77.11;100899.38;5132464;27;19919;-85
2022/12/10 02:17:02;;;;;;;;;;;;;;;13.68;77.27;100894.84;5114017;27;20398;-85
2022/12/10 02:19:43;;;;;;;;;;;;;;;13.74;77.10;100900.34;5113404;27;19919;-85
2022/12/10 02:22:09;;;;;;;;;;;;;;;13.72;77.25;100893.25;5130734;27;20513;-84
2022/12/10 02:24:35;;;;;;;;;;;;;;;13.72;77.23;100899.38;5118656;27;19954;-84
2022/12/10 02:27:21;;;;;;;;;;;;;;;13.72;77.07;100896.75;5104504;28;19911;-85
2022/12/10 02:29:47;;;;;;;;;;;;;;;13.71;77.20;100907.19;5094050;28;19934;-85
2022/12/10 02:32:12;;;;;;;;;;;;;;;13.72;77.10;100899.38;5098792;28;20393;-85
2022/12/10 02:34:42;;;;;;;;;;;;;;;13.74;76.88;100897.72;5093882;28;19976;-85
2022/12/10 02:37:09;;;;;;;;;;;;;;;13.70;77.22;100893.19;5103342;27;19955;-84
2022/12/10 02:39:36;;;;;;;;;;;;;;;13.72;76.91;100891.50;5113863;27;19916;-84
2022/12/10 02:42:01;;;;;;;;;;;;;;;13.70;77.13;100895.81;5113368;27;19916;-85
2022/12/10 02:44:27;;;;;;;;;;;;;;;13.67;77.14;100893.03;5114704;27;19919;-85
2022/12/10 02:46:53;;;;;;;;;;;;;;;13.72;76.94;100886.28;5113070;27;19912;-85
2022/12/10 02:49:18;;;;;;;;;;;;;;;13.72;77.04;100890.63;5112497;28;19989;-85
2022/12/10 02:51:43;;;;;;;;;;;;;;;13.71;76.86;100876.59;5110469;27;19937;-84
2022/12/10 02:54:27;;;;;;;;;;;;;;;13.74;76.83;100883.72;5132847;27;19915;-84
2022/12/10 02:56:58;;;;;;;;;;;;;;;13.72;76.88;100878.41;5118091;27;19912;-84
2022/12/10 02:59:27;;;;;;;;;;;;;;;13.71;76.95;100876.59;5113419;27;20398;-85
2022/12/10 03:02:11;;;;;;;;;;;;;;;13.72;77.05;100874.88;5131653;27;20288;-85
2022/12/10 03:04:47;;;;;;;;;;;;;;;13.73;76.92;100882.78;5132305;27;19922;-85
2022/12/10 03:07:20;;;;;;;;;;;;;;;13.74;76.99;100886.34;5114078;27;19911;-85
2022/12/10 03:09:47;;;;;;;;;;;;;;;13.75;76.76;100878.50;5113555;27;19938;-84
2022/12/10 03:12:17;;;;;;;;;;;;;;;13.74;76.79;100887.22;5111414;28;19945;-84
2022/12/10 03:14:42;;;;;;;;;;;;;;;13.71;76.92;100876.59;5114029;27;19916;-84
2022/12/10 03:17:08;;;;;;;;;;;;;;;13.72;76.79;100881.03;5094458;28;19924;-84
2022/12/10 03:19:35;;;;;;;;;;;;;;;13.72;76.95;100882.75;5107644;28;20425;-84
2022/12/10 03:22:02;;;;;;;;;;;;;;;13.74;76.91;100875.84;5100533;28;20025;-84
2022/12/10 03:24:27;;;;;;;;;;;;;;;13.74;76.76;100883.72;5106142;28;20014;-84
2022/12/10 03:26:53;;;;;;;;;;;;;;;13.73;76.70;100882.78;5102059;28;19998;-85
2022/12/10 03:29:26;;;;;;;;;;;;;;;13.72;76.92;100881.03;5098455;28;20022;-84
2022/12/10 03:31:52;;;;;;;;;;;;;;;13.73;76.82;100874.03;5114034;28;19911;-84
2022/12/10 03:34:21;;;;;;;;;;;;;;;13.74;76.74;100878.47;5086158;28;20380;-84
2022/12/10 03:36:46;;;;;;;;;;;;;;;13.72;76.81;100881.03;5114658;28;20342;-85
2022/12/10 03:39:12;;;;;;;;;;;;;;;13.71;76.81;100876.59;5099473;28;19964;-84
2022/12/10 03:41:37;;;;;;;;;;;;;;;13.71;76.88;100873.97;5095775;28;19984;-84
2022/12/10 03:44:03;;;;;;;;;;;;;;;13.72;76.69;100867.00;5130045;28;20044;-84
2022/12/10 03:46:29;;;;;;;;;;;;;;;13.72;76.94;100856.50;5113837;28;19962;-84
2022/12/10 03:48:54;;;;;;;;;;;;;;;13.67;76.92;100858.91;5113971;28;19962;-84
2022/12/10 03:51:20;;;;;;;;;;;;;;;13.69;76.82;100865.13;5112166;28;20053;-85
2022/12/10 03:53:46;;;;;;;;;;;;;;;13.69;76.80;100867.75;5109720;27;19919;-85
2022/12/10 03:56:11;;;;;;;;;;;;;;;13.70;76.80;100851.19;5117196;27;20404;-85
2022/12/10 03:58:37;;;;;;;;;;;;;;;13.71;76.77;100852.97;5136100;27;19911;-85
2022/12/10 04:01:03;;;;;;;;;;;;;;;13.74;76.72;100854.84;5117969;27;20408;-85
2022/12/10 04:03:28;;;;;;;;;;;;;;;13.72;76.75;100852.16;5121604;27;20026;-85
2022/12/10 04:05:53;;;;;;;;;;;;;;;13.74;76.73;100858.38;5126102;27;20293;-85
2022/12/10 04:08:19;;;;;;;;;;;;;;;13.69;76.87;100852.00;5129740;27;21972;-85
2022/12/10 04:10:44;;;;;;;;;;;;;;;13.71;76.77;100852.97;5098918;27;20397;-85
2022/12/10 04:18:39;;;;;;;;;;;;;;;13.70;76.80;100863.41;5120112;27;19918;-84
2022/12/10 04:26:53;;;;;;;;;;;;;;;13.68;77.10;100854.59;5124603;27;19919;-84
2022/12/10 04:29:22;;;;;;;;;;;;;;;13.69;76.79;100857.25;5134647;27;19947;-84
2022/12/10 04:31:48;;;;;;;;;;;;;;;13.70;76.93;100848.56;5117123;27;20312;-84
2022/12/10 04:34:13;;;;;;;;;;;;;;;13.67;77.16;100843.16;5091221;27;20407;-84
2022/12/10 04:36:39;;;;;;;;;;;;;;;13.69;77.01;100838.00;5127389;27;19977;-84
2022/12/10 04:39:04;;;;;;;;;;;;;;;13.70;77.01;100839.81;5129237;27;19918;-84
2022/12/10 04:41:29;;;;;;;;;;;;;;;13.68;77.22;100838.84;5116775;27;19918;-83
2022/12/10 04:43:55;;;;;;;;;;;;;;;13.69;77.05;100835.38;5109738;27;20426;-83
2022/12/10 04:46:20;;;;;;;;;;;;;;;13.70;77.03;100840.69;5121797;27;19951;-83
2022/12/10 04:48:46;;;;;;;;;;;;;;;13.68;77.05;100830.97;5132850;27;20445;-84
2022/12/10 04:51:11;;;;;;;;;;;;;;;13.67;77.07;100831.78;5103311;27;20452;-84
2022/12/10 04:53:36;;;;;;;;;;;;;;;13.69;76.93;100840.63;5134045;27;19938;-83
2022/12/10 04:56:04;;;;;;;;;;;;;;;13.66;77.18;100841.38;5121949;27;20357;-83
2022/12/10 04:58:30;;;;;;;;;;;;;;;13.68;77.00;100833.59;5134972;27;20006;-84
2022/12/10 05:01:06;;;;;;;;;;;;;;;13.69;77.02;100836.25;5135035;27;19957;-84
2022/12/10 05:03:32;;;;;;;;;;;;;;;13.67;77.01;100837.03;5133352;27;19911;-83
2022/12/10 05:06:04;;;;;;;;;;;;;;;13.63;77.31;100833.38;5116142;27;19921;-84
2022/12/10 05:08:29;;;;;;;;;;;;;;;13.62;77.16;100842.97;5103104;27;19915;-84
2022/12/10 05:10:55;;;;;;;;;;;;;;;13.70;77.00;100839.81;5134638;27;19918;-84
2022/12/10 05:13:21;;;;;;;;;;;;;;;13.66;77.09;100844.00;5116398;27;19915;-84
2022/12/10 05:15:46;;;;;;;;;;;;;;;13.63;77.06;100836.91;5133230;27;19998;-84
2022/12/10 05:18:11;;;;;;;;;;;;;;;13.64;77.14;100838.69;5109568;27;19911;-84
2022/12/10 05:20:37;;;;;;;;;;;;;;;13.65;77.19;100829.09;5134163;27;20498;-84
2022/12/10 05:25:53;;;;;;;;;;;;;;;13.59;77.44;100839.34;5132403;27;19921;-84
2022/12/10 05:28:20;;;;;;;;;;;;;;;13.61;77.36;100840.31;5125253;27;20411;-84
2022/12/10 05:30:45;;;;;;;;;;;;;;;13.67;77.24;100837.91;5109607;27;19911;-84
2022/12/10 05:33:10;;;;;;;;;;;;;;;13.62;77.27;100842.97;5122523;27;19926;-84
2022/12/10 05:35:36;;;;;;;;;;;;;;;13.61;77.26;100840.31;5114791;27;19972;-84
2022/12/10 05:38:01;;;;;;;;;;;;;;;13.66;77.24;100851.88;5115474;27;20408;-84
2022/12/10 05:40:27;;;;;;;;;;;;;;;13.66;77.05;100845.75;5105255;28;20006;-84
2022/12/10 05:42:52;;;;;;;;;;;;;;;13.62;77.25;100845.59;5128976;27;19960;-84
2022/12/10 05:45:17;;;;;;;;;;;;;;;13.68;76.99;100849.34;5125835;27;19922;-84
2022/12/10 05:47:43;;;;;;;;;;;;;;;13.62;77.24;100856.09;5115087;27;20514;-84
2022/12/10 05:50:08;;;;;;;;;;;;;;;13.65;77.14;100852.69;5127927;27;20308;-84
2022/12/10 05:52:34;;;;;;;;;;;;;;;13.68;77.08;100852.84;5113685;27;20404;-84
2022/12/10 05:54:59;;;;;;;;;;;;;;;13.65;77.16;100844.81;5112395;27;20308;-84
2022/12/10 05:57:24;;;;;;;;;;;;;;;13.66;77.16;100846.63;5130635;27;20423;-84
2022/12/10 05:59:50;;;;;;;;;;;;;;;13.67;76.94;100843.16;5092199;27;20376;-84
2022/12/10 06:02:16;;;;;;;;;;;;;;;13.63;77.39;100850.03;5121372;27;20093;-84
2022/12/10 06:04:41;;;;;;;;;;;;;;;13.64;77.06;100841.31;5128406;27;20405;-84
2022/12/10 06:07:06;;;;;;;;;;;;;;;13.68;77.06;100841.47;5132575;27;20453;-84
2022/12/10 06:09:32;;;;;;;;;;;;;;;13.66;77.14;100846.63;5131179;27;20376;-84
2022/12/10 06:11:57;;;;;;;;;;;;;;;13.67;77.04;100844.91;5131715;27;19911;-85
2022/12/10 06:14:23;;;;;;;;;;;;;;;13.66;77.21;100843.13;5120550;27;20411;-85
2022/12/10 06:16:49;;;;;;;;;;;;;;;13.62;77.05;100848.22;5105631;28;20329;-84
2022/12/10 06:19:14;;;;;;;;;;;;;;;13.65;77.08;100842.19;5110311;27;19954;-84
2022/12/10 06:21:40;;;;;;;;;;;;;;;13.66;77.26;100849.25;5129661;27;20397;-84
2022/12/10 06:24:05;;;;;;;;;;;;;;;13.63;77.24;100843.88;5123931;27;19928;-84
2022/12/10 06:26:31;;;;;;;;;;;;;;;13.62;77.33;100840.34;5132949;27;20023;-84
2022/12/10 06:28:56;;;;;;;;;;;;;;;13.67;77.03;100843.16;5129688;27;20289;-83
2022/12/10 06:31:22;;;;;;;;;;;;;;;13.66;77.02;100838.75;5123961;27;20484;-84
2022/12/10 06:33:47;;;;;;;;;;;;;;;13.63;77.21;100838.63;5105495;27;19961;-85
2022/12/10 06:36:13;;;;;;;;;;;;;;;13.68;77.08;100839.72;5107678;27;20409;-83
2022/12/10 06:38:39;;;;;;;;;;;;;;;13.66;77.23;100848.38;5087460;27;19926;-83
2022/12/10 06:41:05;;;;;;;;;;;;;;;13.61;77.20;100843.81;5087818;27;19919;-82
2022/12/10 06:43:30;;;;;;;;;;;;;;;13.63;77.13;100841.25;5104005;27;19916;-85
2022/12/10 06:45:56;;;;;;;;;;;;;;;13.64;77.09;100843.94;5103737;28;19915;-84
2022/12/10 06:48:21;;;;;;;;;;;;;;;13.67;77.32;100848.41;5105397;27;19922;-83
2022/12/10 06:50:46;;;;;;;;;;;;;;;13.65;77.17;100847.44;5110268;27;19922;-84
2022/12/10 06:53:17;;;;;;;;;;;;;;;13.67;77.09;100851.03;5129475;27;20464;-84
2022/12/10 06:55:42;;;;;;;;;;;;;;;13.65;77.30;100852.69;5109964;28;19922;-83
2022/12/10 06:58:08;;;;;;;;;;;;;;;13.62;77.39;100847.34;5092081;27;19911;-84
2022/12/10 07:00:34;;;;;;;;;;;;;;;13.67;77.13;100845.78;5100644;27;19915;-85
2022/12/10 07:02:59;;;;;;;;;;;;;;;13.64;77.18;100845.69;5114107;27;20007;-83
2022/12/10 07:05:25;;;;;;;;;;;;;;;13.66;77.08;100838.75;5130138;27;19915;-85
2022/12/10 07:07:50;;;;;;;;;;;;;;;13.62;77.23;100840.34;5114104;27;20404;-83
2022/12/10 07:10:16;;;;;;;;;;;;;;;13.67;77.15;100839.66;5131558;27;19991;-83
2022/12/10 07:12:41;;;;;;;;;;;;;;;13.69;77.12;100840.63;5124207;27;20319;-84
2022/12/10 07:15:07;;;;;;;;;;;;;;;13.66;77.22;100836.13;5100141;28;19926;-83
2022/12/10 07:17:32;;;;;;;;;;;;;;;13.68;77.13;100836.22;5123269;27;19958;-83
2022/12/10 07:19:58;;;;;;;;;;;;;;;13.64;77.12;100836.06;5130858;27;19919;-85
2022/12/10 07:22:23;;;;;;;;;;;;;;;13.68;77.16;100839.72;5113033;28;19919;-83
2022/12/10 07:24:48;;;;;;;;;;;;;;;13.66;77.25;100836.13;5131636;28;19915;-84
2022/12/10 07:27:14;;;;;;;;;;;;;;;13.68;77.05;100834.47;5135078;27;19918;-84
2022/12/10 07:29:39;;;;;;;;;;;;;;;13.62;77.39;100840.34;5114589;27;19915;-82
2022/12/10 07:32:05;;;;;;;;;;;;;;;13.63;77.23;100830.75;5133573;27;20304;-84
2022/12/10 07:34:30;;;;;;;;;;;;;;;13.63;77.39;100828.13;5121056;27;20308;-84
2022/12/10 07:36:55;;;;;;;;;;;;;;;13.63;77.32;100830.75;5125081;27;20372;-87
2022/12/10 07:39:21;;;;;;;;;;;;;;;13.65;77.40;100823.84;5104327;27;20384;-88
2022/12/10 07:41:52;;;;;;;;;;;;;;;13.63;77.27;100831.66;5104350;27;19915;-86
2022/12/10 07:44:19;;;;;;;;;;;;;;;13.65;77.34;100829.09;5101083;27;19918;-90
2022/12/10 07:46:44;;;;;;;;;;;;;;;13.67;77.17;100840.53;5091042;27;19958;-88
2022/12/10 07:49:17;;;;;;;;;;;;;;;13.69;76.94;100831.00;5108725;27;19946;-88
2022/12/10 07:51:46;;;;;;;;;;;;;;;13.63;77.29;100836.00;5091499;27;19916;-90
2022/12/10 07:54:12;;;;;;;;;;;;;;;13.63;77.35;100836.91;5092381;27;19919;-90
2022/12/10 07:56:37;;;;;;;;;;;;;;;13.63;77.35;100839.53;5086659;27;20435;-87
2022/12/10 07:59:03;;;;;;;;;;;;;;;13.63;77.34;100831.66;5131808;27;19916;-86
2022/12/10 08:01:28;;;;;;;;;;;;;;;13.67;77.23;100837.03;5130573;27;20428;-86
2022/12/10 08:03:56;;;;;;;;;;;;;;;13.66;77.38;100837.88;5132785;27;20305;-86
2022/12/10 08:06:21;;;;;;;;;;;;;;;13.68;77.39;100829.22;5109215;27;20733;-88
2022/12/10 08:08:47;;;;;;;;;;;;;;;13.67;77.29;100826.53;5111899;27;19915;-85
2022/12/10 08:11:13;;;;;;;;;;;;;;;13.62;77.46;100826.34;5116410;27;20311;-87
2022/12/10 08:13:39;;;;;;;;;;;;;;;13.63;77.39;100820.25;5101500;27;19984;-87
2022/12/10 08:16:06;;;;;;;;;;;;;;;13.67;77.33;100816.03;5112980;27;19915;-87
2022/12/10 08:18:32;;;;;;;;;;;;;;;13.65;77.40;100815.97;5111739;27;19916;-85
2022/12/10 08:20:58;;;;;;;;;;;;;;;13.70;77.14;100809.19;5110670;27;19930;-86
2022/12/10 08:23:24;;;;;;;;;;;;;;;13.64;77.51;100814.19;5092894;27;19968;-83
2022/12/10 08:25:49;;;;;;;;;;;;;;;13.71;77.02;100815.34;5130094;27;19955;-84
2022/12/10 08:28:15;;;;;;;;;;;;;;;13.67;77.47;100808.16;5124807;27;19916;-84
2022/12/10 08:30:44;;;;;;;;;;;;;;;13.67;77.51;100805.53;5103282;27;19964;-83
2022/12/10 08:33:10;;;;;;;;;;;;;;;13.68;77.34;100799.47;5103390;27;19984;-86
2022/12/10 08:35:36;;;;;;;;;;;;;;;13.72;77.22;100798.78;5104735;28;20392;-85
2022/12/10 08:38:01;;;;;;;;;;;;;;;13.68;77.48;100802.09;5119826;27;20014;-84
2022/12/10 08:40:26;;;;;;;;;;;;;;;13.70;77.37;100792.56;5101678;28;20312;-84
2022/12/10 08:42:52;;;;;;;;;;;;;;;13.70;77.60;100793.44;5127871;27;20335;-86
2022/12/10 08:45:17;;;;;;;;;;;;;;;13.58;78.18;100793.81;5110086;27;19916;-84
2022/12/10 08:47:43;;;;;;;;;;;;;;;13.64;78.04;100788.84;5122914;27;20014;-86
2022/12/10 08:50:08;;;;;;;;;;;;;;;13.67;78.14;100788.06;5119714;27;20139;-84
2022/12/10 08:52:34;;;;;;;;;;;;;;;13.68;78.11;100784.63;5113657;27;20360;-85
2022/12/10 08:54:59;;;;;;;;;;;;;;;13.72;77.91;100780.41;5126796;27;19924;-84
2022/12/10 08:57:25;;;;;;;;;;;;;;;13.75;77.74;100777.88;5094795;28;20052;-83
2022/12/10 08:59:50;;;;;;;;;;;;;;;13.75;78.13;100767.41;5102052;27;20369;-82
2022/12/10 09:02:15;;;;;;;;;;;;;;;13.78;77.96;100767.53;5124381;27;19915;-82
2022/12/10 09:04:42;;;;;;;;;;;;;;;13.76;77.92;100769.19;5133589;27;19918;-84
2022/12/10 09:07:08;;;;;;;;;;;;;;;13.79;78.16;100764.06;5108990;27;20307;-84
2022/12/10 09:09:33;;;;;;;;;;;;;;;13.80;77.90;100760.59;5103745;27;19924;-83
2022/12/10 09:11:58;;;;;;;;;;;;;;;13.82;78.04;100751.97;5129332;27;19976;-83
2022/12/10 09:14:24;;;;;;;;;;;;;;;13.84;78.31;100762.50;5105717;27;19923;-84
2022/12/10 09:16:49;;;;;;;;;;;;;;;13.89;77.80;100757.47;5109023;27;20370;-84
2022/12/10 09:19:15;;;;;;;;;;;;;;;13.84;78.42;100749.38;5131948;27;19928;-84
2022/12/10 09:21:40;;;;;;;;;;;;;;;13.89;78.04;100746.97;5129868;27;19915;-82
2022/12/10 09:24:06;;;;;;;;;;;;;;;13.89;78.62;100744.34;5130886;27;20304;-83
2022/12/10 09:26:31;;;;;;;;;;;;;;;13.93;78.37;100741.00;5115285;27;20003;-84
2022/12/10 09:28:57;;;;;;;;;;;;;;;13.93;78.42;100730.50;5120060;27;19916;-85
2022/12/10 09:31:23;;;;;;;;;;;;;;;13.93;78.80;100733.13;5134270;27;20349;-85
2022/12/10 09:33:52;;;;;;;;;;;;;;;13.91;78.96;100721.69;5128702;27;20398;-85
2022/12/10 09:36:18;;;;;;;;;;;;;;;13.93;79.01;100720.00;5119768;27;19911;-84
2022/12/10 09:38:43;;;;;;;;;;;;;;;13.92;78.91;100720.81;5130455;27;19915;-84
2022/12/10 09:41:28;;;;;;;;;;;;;;;13.92;78.86;100719.09;5132661;27;19915;-83
2022/12/10 09:43:59;;;;;;;;;;;;;;;13.94;79.33;100703.41;5128328;27;19916;-84
2022/12/10 09:46:43;;;;;;;;;;;;;;;13.96;79.39;100697.38;5119071;27;20428;-84
2022/12/10 09:49:28;;;;;;;;;;;;;;;13.94;79.34;100693.78;5105742;28;19916;-84
2022/12/10 09:51:54;;;;;;;;;;;;;;;13.98;79.37;100687.81;5125353;27;19915;-84
2022/12/10 09:54:24;;;;;;;;;;;;;;;13.99;79.21;100687.00;5120033;27;19923;-84
2022/12/10 09:56:50;;;;;;;;;;;;;;;13.99;79.57;100680.84;5105760;27;19968;-84
2022/12/10 09:59:17;;;;;;;;;;;;;;;14.02;79.53;100671.38;5092409;27;19915;-84
2022/12/10 10:01:42;;;;;;;;;;;;;;;14.03;79.58;100673.16;5111941;27;19911;-85
2022/12/10 10:04:08;;;;;;;;;;;;;;;14.03;79.46;100669.63;5126937;27;19926;-84
2022/12/10 10:06:33;;;;;;;;;;;;;;;14.05;79.69;100663.63;5113838;27;20388;-85
2022/12/10 10:08:59;;;;;;;;;;;;;;;14.06;79.95;100661.88;5109954;27;19922;-85
2022/12/10 10:11:26;;;;;;;;;;;;;;;14.09;79.91;100658.47;5088680;28;20385;-84
2022/12/10 10:13:53;;;;;;;;;;;;;;;14.08;80.14;100654.06;5127541;27;20571;-85
2022/12/10 10:16:20;;;;;;;;;;;;;;;14.11;80.42;100654.16;5106965;27;19916;-84
2022/12/10 10:19:06;;;;;;;;;;;;;;;14.09;80.59;100645.34;5097944;27;19916;-84
2022/12/10 10:21:33;;;;;;;;;;;;;;;14.13;80.20;100635.00;5131076;27;20010;-84
2022/12/10 10:23:58;;;;;;;;;;;;;;;14.16;80.33;100628.97;5127444;27;19915;-83
2022/12/10 10:26:27;;;;;;;;;;;;;;;14.16;80.80;100619.38;5105908;27;20060;-82
2022/12/10 10:28:55;;;;;;;;;;;;;;;14.17;81.34;100628.16;5105347;27;19923;-83
2022/12/10 10:31:25;;;;;;;;;;;;;;;14.17;81.13;100613.28;5089658;27;20413;-83
2022/12/10 10:33:56;;;;;;;;;;;;;;;14.18;80.95;100619.41;5109625;27;19915;-84
2022/12/10 10:36:25;;;;;;;;;;;;;;;14.17;81.69;100615.91;5110937;27;19911;-85
2022/12/10 10:38:51;;;;;;;;;;;;;;;14.17;81.95;100615.00;5088949;28;19915;-82
2022/12/10 10:41:16;;;;;;;;;;;;;;;14.15;81.67;100614.94;5087385;28;20299;-85
2022/12/10 10:43:44;;;;;;;;;;;;;;;14.17;81.93;100610.66;5124189;27;19922;-85
2022/12/10 10:46:22;;;;;;;;;;;;;;;14.17;81.92;100608.03;5104641;27;19920;-84
2022/12/10 10:48:48;;;;;;;;;;;;;;;14.20;81.86;100615.09;5107088;27;19915;-84
2022/12/10 10:51:16;;;;;;;;;;;;;;;14.22;82.10;100606.47;5119103;27;20011;-83
2022/12/10 10:53:45;;;;;;;;;;;;;;;14.23;81.50;100600.38;5120986;27;20006;-81
2022/12/10 10:56:11;;;;;;;;;;;;;;;14.24;81.71;100589.03;5128561;27;19912;-84
2022/12/10 10:58:44;;;;;;;;;;;;;;;14.24;82.21;100593.38;5123244;27;20010;-83
2022/12/10 11:01:09;;;;;;;;;;;;;;;14.29;82.38;100596.16;5110269;27;19915;-85
2022/12/10 11:03:35;;;;;;;;;;;;;;;14.26;82.71;100583.81;5104839;27;20445;-85
2022/12/10 11:06:01;;;;;;;;;;;;;;;14.29;81.58;100583.03;5109172;27;19937;-85
2022/12/10 11:08:29;;;;;;;;;;;;;;;14.27;82.20;100571.59;5092828;27;19915;-85
2022/12/10 11:11:01;;;;;;;;;;;;;;;14.24;82.79;100575.91;5126931;27;19911;-85
2022/12/10 11:13:28;;;;;;;;;;;;;;;14.22;82.54;100567.09;5102006;28;20309;-86
2022/12/10 11:16:16;;;;;;;;;;;;;;;14.23;82.13;100571.47;5098935;27;19911;-87
2022/12/10 11:18:42;;;;;;;;;;;;;;;14.24;81.89;100567.13;5083875;28;20368;-85
2022/12/10 11:21:13;;;;;;;;;;;;;;;14.26;82.32;100568.06;5132232;27;19920;-86
2022/12/10 11:23:40;;;;;;;;;;;;;;;14.28;82.94;100573.38;5102893;28;20346;-87
2022/12/10 11:26:09;;;;;;;;;;;;;;;14.30;82.77;100569.97;5108143;28;19915;-87
2022/12/10 11:28:54;;;;;;;;;;;;;;;14.31;81.86;100568.22;5087579;28;19919;-86
2022/12/10 11:31:34;;;;;;;;;;;;;;;14.32;81.99;100560.41;5112996;28;19912;-88
2022/12/10 11:33:59;;;;;;;;;;;;;;;14.31;82.49;100555.09;5126213;28;19919;-87
2022/12/10 11:36:31;;;;;;;;;;;;;;;14.35;82.43;100552.66;5126319;28;19981;-84
2022/12/10 11:39:00;;;;;;;;;;;;;;;14.36;82.64;100559.69;5119138;28;19915;-88
2022/12/10 11:41:30;;;;;;;;;;;;;;;14.35;82.54;100547.41;5104252;28;20509;-88
2022/12/10 11:43:55;;;;;;;;;;;;;;;14.38;82.54;100539.59;5126810;28;19915;-88
2022/12/10 11:46:35;;;;;;;;;;;;;;;14.38;82.92;100544.88;5125301;28;19915;-88
2022/12/10 11:49:10;;;;;;;;;;;;;;;14.39;82.87;100543.13;5090659;28;19919;-87
2022/12/10 11:51:35;;;;;;;;;;;;;;;14.44;82.89;100542.44;5124379;28;20408;-86
2022/12/10 11:54:12;;;;;;;;;;;;;;;14.39;84.19;100551.00;5131257;28;19924;-87
2022/12/10 11:56:44;;;;;;;;;;;;;;;14.44;82.79;100539.81;5104922;28;19916;-90
2022/12/10 11:59:10;;;;;;;;;;;;;;;14.49;83.17;100546.97;5110270;28;20415;-89
2022/12/10 12:01:43;;;;;;;;;;;;;;;14.49;82.25;100534.72;5105569;28;20010;-87
2022/12/10 12:04:14;;;;;;;;;;;;;;;14.46;83.43;100542.50;5113286;28;19923;-87
2022/12/10 12:06:50;;;;;;;;;;;;;;;14.47;83.53;100539.03;5128937;28;20285;-86
2022/12/10 12:09:16;;;;;;;;;;;;;;;14.50;83.46;100530.34;5102450;28;19918;-87
2022/12/10 12:11:53;;;;;;;;;;;;;;;14.54;82.94;100537.50;5128773;27;19923;-87
2022/12/10 12:14:18;;;;;;;;;;;;;;;14.55;83.33;100526.16;5115512;27;19919;-87
2022/12/10 12:16:46;;;;;;;;;;;;;;;14.56;83.08;100527.97;5122699;27;20038;-87
2022/12/10 12:19:19;;;;;;;;;;;;;;;14.57;83.79;100529.78;5097696;27;19919;-88
2022/12/10 12:21:44;;;;;;;;;;;;;;;14.57;83.60;100528.03;5113932;27;19922;-87
2022/12/10 12:24:31;;;;;;;;;;;;;;;14.60;83.39;100535.13;5114606;27;19919;-88
2022/12/10 12:27:04;;;;;;;;;;;;;;;14.66;82.83;100537.97;5117595;27;19916;-86
2022/12/10 12:29:31;;;;;;;;;;;;;;;14.68;83.07;100538.91;5112899;28;19916;-88
2022/12/10 12:32:16;;;;;;;;;;;;;;;14.72;82.95;100532.91;5101528;28;19923;-89
2022/12/10 12:34:47;;;;;;;;;;;;;;;14.72;82.61;100527.66;5127225;27;19926;-87
2022/12/10 12:37:14;;;;;;;;;;;;;;;14.74;82.49;100525.09;5113991;27;19911;-88
2022/12/10 12:39:52;;;;;;;;;;;;;;;14.74;82.66;100518.09;5084994;27;20452;-88
2022/12/10 12:42:32;;;;;;;;;;;;;;;14.76;82.74;100526.03;5129312;27;20372;-90
2022/12/10 12:45:03;;;;;;;;;;;;;;;14.77;82.78;100528.69;5109077;27;19924;-89
2022/12/10 12:47:29;;;;;;;;;;;;;;;14.79;82.91;100528.75;5132457;27;19911;-87
2022/12/10 12:49:55;;;;;;;;;;;;;;;14.79;83.12;100526.13;5104787;27;19918;-87
2022/12/10 12:52:26;;;;;;;;;;;;;;;14.79;82.79;100515.59;5091540;28;19916;-86